Terminal Aerodrome Forecast
Issued by NWS Cleveland, OH

Home | Current Version | Previous Version | Graphics & Text | Print | Product List | Glossary On
Versions: 1 2 3 4 5 6 7 8 9 10 11 12 13 14 15 16 17 18 19 20 21 22 23 24 25
000
FTUS41 KCLE 261700
TAFYNG
TAF
KYNG 261739Z 2618/2718 34009KT 1SM -RA BR OVC004
     FM262000 32006KT 2SM BR VCSH OVC009
     FM262300 31006KT 6SM BR OVC015
     FM270400 29007KT P6SM OVC025
      TEMPO 2706/2710 OVC035
     FM271100 32008KT P6SM OVC019
     FM271700 33008KT P6SM OVC030=

USA.gov is the U.S. government's official web portal to all federal, state and local government web resources and services.